Time;durP1;ratioP1;P1;durP2;ratioP2;P2;SDS_P1;SDS_P2;PMS_P1;PMS_P2;Temp;Humidity;BMP_temperature;BMP_pressure;BME280_temperature;BME280_humidity;BME280_pressure;Samples;Min_cycle;Max_cycle;Signal;HPM_P1;HPM_P2
2021/10/24 00:01:19;;;;;;;8.63;6.97;;;;;;;;;;5112456;28;20583;-82
2021/10/24 00:04:05;;;;;;;12.27;7.23;;;;;;;;;;5112425;28;20247;-82
2021/10/24 00:06:51;;;;;;;9.43;6.57;;;;;;;;;;5112397;28;20261;-83
2021/10/24 00:09:36;;;;;;;7.93;6.93;;;;;;;;;;5112503;28;20176;-83
2021/10/24 00:12:21;;;;;;;11.70;7.13;;;;;;;;;;5112261;28;20187;-82
2021/10/24 00:15:06;;;;;;;7.17;6.40;;;;;;;;;;5112847;28;20246;-83
2021/10/24 00:17:51;;;;;;;9.27;6.77;;;;;;;;;;5112480;28;20259;-83
2021/10/24 00:20:38;;;;;;;9.90;7.10;;;;;;;;;;5112094;28;20672;-83
2021/10/24 00:23:22;;;;;;;13.50;6.90;;;;;;;;;;5112031;28;20651;-83
2021/10/24 00:26:07;;;;;;;8.07;6.70;;;;;;;;;;5111747;28;20186;-83
2021/10/24 00:28:52;;;;;;;8.97;6.17;;;;;;;;;;5111632;28;20217;-83
2021/10/24 00:31:38;;;;;;;10.17;6.60;;;;;;;;;;5111851;28;20196;-83
2021/10/24 00:34:23;;;;;;;8.60;6.97;;;;;;;;;;5111884;28;20663;-83
2021/10/24 00:37:09;;;;;;;10.67;6.50;;;;;;;;;;5111826;28;20188;-83
2021/10/24 00:39:55;;;;;;;9.03;6.20;;;;;;;;;;5111581;28;20189;-83
2021/10/24 00:42:44;;;;;;;8.23;6.70;;;;;;;;;;5111706;28;20192;-83
2021/10/24 00:45:30;;;;;;;9.37;7.53;;;;;;;;;;5111587;28;20266;-83
2021/10/24 00:48:15;;;;;;;10.47;7.30;;;;;;;;;;5111753;28;20184;-83
2021/10/24 00:51:00;;;;;;;10.10;7.53;;;;;;;;;;5111827;28;20244;-83
2021/10/24 00:53:47;;;;;;;9.33;6.50;;;;;;;;;;5111418;28;20298;-82
2021/10/24 00:56:32;;;;;;;8.43;7.53;;;;;;;;;;5111430;28;20696;-83
2021/10/24 00:59:17;;;;;;;10.53;7.33;;;;;;;;;;5111382;28;20184;-83
2021/10/24 01:02:03;;;;;;;9.87;7.33;;;;;;;;;;5111373;28;20274;-82
2021/10/24 01:04:48;;;;;;;8.47;7.13;;;;;;;;;;5111445;28;20180;-82
2021/10/24 01:07:33;;;;;;;10.83;7.00;;;;;;;;;;5111234;28;20185;-83
2021/10/24 01:10:19;;;;;;;7.07;6.37;;;;;;;;;;5115488;28;20219;-82
2021/10/24 01:13:04;;;;;;;8.70;6.50;;;;;;;;;;5115102;28;20203;-82
2021/10/24 01:15:50;;;;;;;7.97;6.53;;;;;;;;;;5114930;28;20711;-82
2021/10/24 01:18:35;;;;;;;9.20;6.57;;;;;;;;;;5115101;28;20565;-83
2021/10/24 01:21:21;;;;;;;9.20;6.83;;;;;;;;;;5115073;28;20185;-83
2021/10/24 01:24:06;;;;;;;9.00;6.87;;;;;;;;;;5115033;28;20188;-82
2021/10/24 01:26:52;;;;;;;8.50;6.40;;;;;;;;;;5115328;28;20184;-82
2021/10/24 01:29:36;;;;;;;9.53;6.47;;;;;;;;;;5114975;28;20188;-82
2021/10/24 01:32:22;;;;;;;9.07;6.70;;;;;;;;;;5114808;28;20792;-82
2021/10/24 01:35:07;;;;;;;7.10;6.40;;;;;;;;;;5114859;28;20674;-83
2021/10/24 01:37:55;;;;;;;8.87;6.00;;;;;;;;;;5114779;28;20242;-82
2021/10/24 01:40:41;;;;;;;8.27;6.37;;;;;;;;;;5114900;28;20196;-82
2021/10/24 01:43:26;;;;;;;9.57;6.50;;;;;;;;;;5114759;28;20188;-82
2021/10/24 01:46:11;;;;;;;7.50;6.30;;;;;;;;;;5114558;28;20680;-82
2021/10/24 01:48:56;;;;;;;8.70;6.13;;;;;;;;;;5114341;28;20668;-83
2021/10/24 01:51:43;;;;;;;9.77;6.40;;;;;;;;;;5114516;28;20227;-82
2021/10/24 01:54:29;;;;;;;8.93;6.07;;;;;;;;;;5114291;28;20346;-82
2021/10/24 01:57:14;;;;;;;8.67;6.30;;;;;;;;;;5114526;28;20234;-83
2021/10/24 01:59:59;;;;;;;7.53;5.80;;;;;;;;;;5114449;28;20211;-82
2021/10/24 02:02:44;;;;;;;7.63;5.97;;;;;;;;;;5114119;28;20680;-82
2021/10/24 02:05:29;;;;;;;9.20;6.60;;;;;;;;;;5114635;28;20184;-82
2021/10/24 02:08:14;;;;;;;6.17;5.57;;;;;;;;;;5114172;28;20668;-83
2021/10/24 02:11:01;;;;;;;8.17;5.93;;;;;;;;;;5113976;28;20188;-82
2021/10/24 02:13:46;;;;;;;9.27;6.03;;;;;;;;;;5114229;28;20674;-83
2021/10/24 02:16:31;;;;;;;7.43;5.93;;;;;;;;;;5113801;28;20208;-83
2021/10/24 02:19:16;;;;;;;7.10;5.80;;;;;;;;;;5113995;28;20187;-82
2021/10/24 02:22:03;;;;;;;8.33;6.23;;;;;;;;;;5113759;28;20189;-82
2021/10/24 02:24:48;;;;;;;6.77;5.93;;;;;;;;;;5114032;28;20301;-82
2021/10/24 02:27:36;;;;;;;8.40;5.80;;;;;;;;;;5114025;28;20310;-82
2021/10/24 02:30:21;;;;;;;6.87;6.27;;;;;;;;;;5113751;28;20188;-83
2021/10/24 02:33:06;;;;;;;7.20;6.10;;;;;;;;;;5113501;28;20315;-82
2021/10/24 02:35:51;;;;;;;6.67;5.93;;;;;;;;;;5113315;28;20211;-83
2021/10/24 02:38:36;;;;;;;9.10;6.17;;;;;;;;;;5113553;28;20185;-83
2021/10/24 02:41:21;;;;;;;7.73;5.83;;;;;;;;;;5113389;28;20181;-82
2021/10/24 02:44:08;;;;;;;6.67;5.67;;;;;;;;;;5113307;28;20314;-83
2021/10/24 02:46:53;;;;;;;7.83;6.47;;;;;;;;;;5113163;28;20188;-83
2021/10/24 02:49:38;;;;;;;6.97;6.33;;;;;;;;;;5113438;28;20686;-83
2021/10/24 02:52:23;;;;;;;6.77;6.10;;;;;;;;;;5113010;28;20249;-83
2021/10/24 02:55:08;;;;;;;6.77;5.63;;;;;;;;;;5113060;28;20678;-83
2021/10/24 02:57:56;;;;;;;10.37;6.20;;;;;;;;;;5113274;28;20201;-84
2021/10/24 03:00:42;;;;;;;11.07;6.30;;;;;;;;;;5113015;28;20192;-83
2021/10/24 03:03:27;;;;;;;8.00;6.90;;;;;;;;;;5113394;28;20262;-82
2021/10/24 03:06:12;;;;;;;8.47;6.13;;;;;;;;;;5113122;28;20342;-83
2021/10/24 03:08:57;;;;;;;11.37;6.00;;;;;;;;;;5112989;28;20180;-83
2021/10/24 03:11:42;;;;;;;6.83;5.53;;;;;;;;;;5112862;28;20811;-83
2021/10/24 03:14:27;;;;;;;6.97;5.90;;;;;;;;;;5113170;28;20659;-82
2021/10/24 03:17:14;;;;;;;9.17;5.97;;;;;;;;;;5112526;28;20207;-82
2021/10/24 03:19:59;;;;;;;10.17;5.70;;;;;;;;;;5112843;28;20273;-83
2021/10/24 03:22:44;;;;;;;9.07;6.27;;;;;;;;;;5112512;28;20191;-83
2021/10/24 03:25:29;;;;;;;12.90;6.63;;;;;;;;;;5112705;28;20179;-83
2021/10/24 03:28:14;;;;;;;9.83;6.87;;;;;;;;;;5112605;28;20218;-83
2021/10/24 03:30:59;;;;;;;8.70;6.37;;;;;;;;;;5112254;28;20179;-82
2021/10/24 03:33:45;;;;;;;6.43;5.67;;;;;;;;;;5111836;28;20180;-82
2021/10/24 03:36:30;;;;;;;6.27;5.53;;;;;;;;;;5112539;28;20212;-83
2021/10/24 03:39:16;;;;;;;9.40;6.90;;;;;;;;;;5112630;28;20600;-83
2021/10/24 03:42:01;;;;;;;6.57;5.77;;;;;;;;;;5111981;28;20188;-82
2021/10/24 03:44:46;;;;;;;7.33;5.90;;;;;;;;;;5112167;28;20778;-83
2021/10/24 03:47:31;;;;;;;9.63;6.33;;;;;;;;;;5112331;28;20665;-83
2021/10/24 03:50:18;;;;;;;8.27;6.07;;;;;;;;;;5112109;28;20232;-83
2021/10/24 03:53:03;;;;;;;7.77;5.87;;;;;;;;;;5112386;28;20235;-83
2021/10/24 03:55:48;;;;;;;9.10;6.20;;;;;;;;;;5112163;28;20204;-83
2021/10/24 03:58:33;;;;;;;9.77;6.30;;;;;;;;;;5112056;28;20664;-83
2021/10/24 04:01:18;;;;;;;9.37;5.87;;;;;;;;;;5112176;28;20184;-83
2021/10/24 04:04:03;;;;;;;9.30;5.83;;;;;;;;;;5112002;28;20219;-83
2021/10/24 04:06:49;;;;;;;8.40;5.80;;;;;;;;;;5111954;28;20202;-83
2021/10/24 04:09:34;;;;;;;7.00;5.67;;;;;;;;;;5112151;28;20192;-83
2021/10/24 04:12:20;;;;;;;6.67;5.63;;;;;;;;;;5111723;28;20184;-83
2021/10/24 04:15:05;;;;;;;7.17;5.90;;;;;;;;;;5112533;28;20200;-83
2021/10/24 04:17:50;;;;;;;7.90;6.17;;;;;;;;;;5111756;28;20208;-83
2021/10/24 04:20:36;;;;;;;7.43;5.40;;;;;;;;;;5111913;28;20546;-83
2021/10/24 04:23:22;;;;;;;9.27;5.97;;;;;;;;;;5111948;28;20311;-83
2021/10/24 04:26:08;;;;;;;7.57;5.73;;;;;;;;;;5111839;28;20188;-83
2021/10/24 04:28:53;;;;;;;6.07;5.57;;;;;;;;;;5111871;28;20258;-83
2021/10/24 04:31:38;;;;;;;7.43;5.60;;;;;;;;;;5111794;28;20582;-83
2021/10/24 04:34:23;;;;;;;6.33;5.73;;;;;;;;;;5111791;28;20704;-83
2021/10/24 04:37:08;;;;;;;6.00;5.40;;;;;;;;;;5111645;28;20204;-83
2021/10/24 04:39:54;;;;;;;8.53;6.37;;;;;;;;;;5111563;28;20196;-83
2021/10/24 04:42:39;;;;;;;9.30;5.87;;;;;;;;;;5111628;28;20229;-83
2021/10/24 04:45:24;;;;;;;7.47;5.80;;;;;;;;;;5115807;28;20191;-83
2021/10/24 04:48:09;;;;;;;9.20;6.73;;;;;;;;;;5115586;28;20200;-83
2021/10/24 04:50:54;;;;;;;7.93;5.80;;;;;;;;;;5115726;28;20227;-83
2021/10/24 04:53:39;;;;;;;7.03;6.00;;;;;;;;;;5115369;28;20231;-83
2021/10/24 04:56:26;;;;;;;6.57;5.97;;;;;;;;;;5115500;28;20215;-83
2021/10/24 04:59:11;;;;;;;9.20;6.03;;;;;;;;;;5115803;28;20310;-83
2021/10/24 05:01:56;;;;;;;11.87;6.40;;;;;;;;;;5115346;28;20192;-83
2021/10/24 05:04:41;;;;;;;8.13;6.33;;;;;;;;;;5115343;28;20179;-83
2021/10/24 05:07:26;;;;;;;7.47;6.03;;;;;;;;;;5115816;28;20196;-80
2021/10/24 05:10:11;;;;;;;6.03;5.40;;;;;;;;;;5115346;28;20234;-81
2021/10/24 05:12:58;;;;;;;6.33;5.73;;;;;;;;;;5115447;28;20184;-83
2021/10/24 05:15:43;;;;;;;7.57;6.17;;;;;;;;;;5115957;28;20569;-83
2021/10/24 05:18:28;;;;;;;7.70;5.93;;;;;;;;;;5115442;28;20231;-82
2021/10/24 05:21:13;;;;;;;6.10;5.50;;;;;;;;;;5115288;28;20298;-82
2021/10/24 05:23:58;;;;;;;9.40;5.93;;;;;;;;;;5115313;28;20200;-83
2021/10/24 05:26:44;;;;;;;6.20;5.40;;;;;;;;;;5115066;28;20180;-81
2021/10/24 05:29:30;;;;;;;8.00;6.40;;;;;;;;;;5115186;28;20678;-83
2021/10/24 05:32:15;;;;;;;8.83;6.17;;;;;;;;;;5115383;28;20195;-83
2021/10/24 05:35:00;;;;;;;6.97;5.63;;;;;;;;;;5115282;28;20184;-83
2021/10/24 05:37:45;;;;;;;8.37;6.70;;;;;;;;;;5114990;28;20208;-83
2021/10/24 05:40:31;;;;;;;9.90;6.47;;;;;;;;;;5115028;28;20184;-83
2021/10/24 05:43:17;;;;;;;9.67;5.80;;;;;;;;;;5114921;28;20188;-84
2021/10/24 05:46:03;;;;;;;8.50;6.53;;;;;;;;;;5115130;28;20541;-82
2021/10/24 05:48:48;;;;;;;7.60;6.00;;;;;;;;;;5114989;28;20266;-83
2021/10/24 05:51:34;;;;;;;8.13;5.77;;;;;;;;;;5115210;28;20239;-83
2021/10/24 05:54:19;;;;;;;6.03;5.40;;;;;;;;;;5114239;28;20326;-83
2021/10/24 05:57:04;;;;;;;5.80;5.30;;;;;;;;;;5114530;28;20292;-82
2021/10/24 05:59:49;;;;;;;6.40;5.77;;;;;;;;;;5114760;28;20261;-83
2021/10/24 06:02:35;;;;;;;9.03;5.53;;;;;;;;;;5114924;28;20179;-83
2021/10/24 06:05:20;;;;;;;9.00;6.40;;;;;;;;;;5114915;28;20555;-83
2021/10/24 06:08:05;;;;;;;10.30;5.27;;;;;;;;;;5115018;28;20278;-83
2021/10/24 06:10:52;;;;;;;6.50;5.90;;;;;;;;;;5114689;28;20560;-83
2021/10/24 06:13:37;;;;;;;6.17;5.57;;;;;;;;;;5115243;28;20285;-83
2021/10/24 06:16:23;;;;;;;6.70;5.37;;;;;;;;;;5103225;28;20317;-82
2021/10/24 06:19:10;;;;;;;7.67;5.60;;;;;;;;;;5103711;28;20726;-82
2021/10/24 06:21:54;;;;;;;6.67;5.47;;;;;;;;;;5114373;28;20184;-82
2021/10/24 06:24:39;;;;;;;5.87;5.37;;;;;;;;;;5094254;28;20320;-82
2021/10/24 06:27:24;;;;;;;6.83;5.90;;;;;;;;;;5098509;28;20268;-82
2021/10/24 06:30:10;;;;;;;6.10;5.50;;;;;;;;;;5107514;28;20262;-82
2021/10/24 06:32:55;;;;;;;6.10;5.50;;;;;;;;;;5114193;28;20200;-83
2021/10/24 06:35:42;;;;;;;6.67;5.70;;;;;;;;;;5108882;28;20204;-83
2021/10/24 06:38:27;;;;;;;6.00;5.40;;;;;;;;;;5109752;28;20338;-82
2021/10/24 06:41:12;;;;;;;9.17;5.73;;;;;;;;;;5114003;28;20322;-82
2021/10/24 06:43:58;;;;;;;7.77;5.80;;;;;;;;;;5113917;28;20192;-83
2021/10/24 06:46:43;;;;;;;8.17;6.17;;;;;;;;;;5111977;28;20197;-83
2021/10/24 06:49:28;;;;;;;6.50;5.90;;;;;;;;;;5113464;28;20739;-83
2021/10/24 06:52:14;;;;;;;9.30;6.37;;;;;;;;;;5113922;28;20189;-83
2021/10/24 06:54:59;;;;;;;8.17;6.50;;;;;;;;;;5102770;28;20675;-83
2021/10/24 06:57:47;;;;;;;10.10;7.00;;;;;;;;;;5108866;28;20211;-82
2021/10/24 07:00:35;;;;;;;8.40;6.70;;;;;;;;;;5104205;28;20195;-83
2021/10/24 07:03:20;;;;;;;10.83;6.90;;;;;;;;;;5113381;28;20196;-83
2021/10/24 07:06:05;;;;;;;9.43;7.20;;;;;;;;;;5108882;28;20196;-83
2021/10/24 07:08:52;;;;;;;11.77;7.87;;;;;;;;;;5113668;28;20184;-82
2021/10/24 07:11:37;;;;;;;14.10;9.77;;;;;;;;;;5113830;28;20187;-81
2021/10/24 07:14:23;;;;;;;10.50;7.37;;;;;;;;;;5114030;28;20211;-82
2021/10/24 07:17:08;;;;;;;10.33;7.10;;;;;;;;;;5113474;28;20318;-82
2021/10/24 07:19:53;;;;;;;7.23;6.53;;;;;;;;;;5113373;28;20588;-81
2021/10/24 07:22:38;;;;;;;8.87;6.57;;;;;;;;;;5113765;28;20188;-81
2021/10/24 07:25:25;;;;;;;7.40;6.13;;;;;;;;;;5113218;28;20680;-81
2021/10/24 07:28:10;;;;;;;10.27;7.30;;;;;;;;;;5113681;28;20199;-81
2021/10/24 07:30:55;;;;;;;10.13;6.83;;;;;;;;;;5113141;28;20234;-82
2021/10/24 07:33:40;;;;;;;9.43;7.57;;;;;;;;;;5113235;28;20188;-81
2021/10/24 07:36:28;;;;;;;11.80;7.33;;;;;;;;;;5113461;28;20314;-82
2021/10/24 07:39:15;;;;;;;8.97;6.70;;;;;;;;;;5113371;28;20724;-82
2021/10/24 07:42:01;;;;;;;8.47;6.67;;;;;;;;;;5113005;28;20273;-81
2021/10/24 07:44:46;;;;;;;7.60;6.20;;;;;;;;;;5112551;28;20266;-82
2021/10/24 07:47:31;;;;;;;11.70;7.77;;;;;;;;;;5112195;28;20266;-82
2021/10/24 07:50:16;;;;;;;8.77;7.10;;;;;;;;;;5112430;28;20224;-80
2021/10/24 07:53:01;;;;;;;10.03;7.17;;;;;;;;;;5112490;28;20227;-80
2021/10/24 07:55:46;;;;;;;11.07;7.13;;;;;;;;;;5112475;28;20185;-80
2021/10/24 07:58:36;;;;;;;8.43;6.70;;;;;;;;;;5112657;28;20208;-81
2021/10/24 08:01:21;;;;;;;10.83;6.37;;;;;;;;;;5112118;28;20188;-81
2021/10/24 08:04:06;;;;;;;9.63;6.50;;;;;;;;;;5111823;28;20697;-81
2021/10/24 08:06:52;;;;;;;10.50;6.10;;;;;;;;;;5112259;28;20306;-81
2021/10/24 08:09:37;;;;;;;6.57;5.97;;;;;;;;;;5111993;28;20184;-81
2021/10/24 08:12:23;;;;;;;8.23;5.93;;;;;;;;;;5112328;28;20183;-81
2021/10/24 08:15:10;;;;;;;8.90;6.67;;;;;;;;;;5112348;28;20656;-82
2021/10/24 08:17:56;;;;;;;9.13;6.33;;;;;;;;;;5111700;28;20293;-80
2021/10/24 08:20:41;;;;;;;9.30;6.57;;;;;;;;;;5112095;28;20234;-81
2021/10/24 08:23:27;;;;;;;10.20;7.10;;;;;;;;;;5112023;28;20642;-81
2021/10/24 08:26:13;;;;;;;8.10;6.30;;;;;;;;;;5112019;28;20188;-81
2021/10/24 08:28:58;;;;;;;8.80;6.93;;;;;;;;;;5112052;28;20180;-81
2021/10/24 08:31:49;;;;;;;9.40;6.70;;;;;;;;;;5111899;28;20656;-81
2021/10/24 08:34:35;;;;;;;8.93;7.43;;;;;;;;;;5111709;28;20234;-81
2021/10/24 08:37:25;;;;;;;8.30;6.00;;;;;;;;;;5112432;28;20188;-81
2021/10/24 08:40:11;;;;;;;11.60;6.67;;;;;;;;;;5112251;28;20188;-82
2021/10/24 08:42:59;;;;;;;11.93;5.63;;;;;;;;;;5111898;28;20659;-82
2021/10/24 08:45:46;;;;;;;6.63;5.97;;;;;;;;;;5111685;28;20184;-80
2021/10/24 08:48:34;;;;;;;6.37;5.77;;;;;;;;;;5111808;28;20192;-80
2021/10/24 08:51:26;;;;;;;6.63;5.47;;;;;;;;;;5111700;28;20278;-79
2021/10/24 08:54:13;;;;;;;8.68;6.80;;;;;;;;;;5110597;28;20736;-80
2021/10/24 08:56:58;;;;;;;6.47;5.87;;;;;;;;;;5111527;28;20637;-79
2021/10/24 08:59:43;;;;;;;7.83;5.97;;;;;;;;;;5111524;28;20561;-81
2021/10/24 09:02:50;;;;;;;7.67;5.40;;;;;;;;;;5111959;28;20265;-80
2021/10/24 09:05:38;;;;;;;6.60;5.70;;;;;;;;;;5111653;28;20656;-80
2021/10/24 09:08:24;;;;;;;9.50;5.53;;;;;;;;;;5111743;28;20191;-81
2021/10/24 09:11:10;;;;;;;8.50;5.30;;;;;;;;;;5109940;28;20205;-81
2021/10/24 09:13:55;;;;;;;7.10;5.93;;;;;;;;;;5111958;28;20717;-81
2021/10/24 09:16:53;;;;;;;6.77;5.57;;;;;;;;;;5110534;28;20200;-80
2021/10/24 09:19:39;;;;;;;6.17;5.50;;;;;;;;;;5111425;28;20208;-81
2021/10/24 09:22:27;;;;;;;5.83;5.20;;;;;;;;;;5111576;28;20188;-80
2021/10/24 09:25:14;;;;;;;9.97;5.43;;;;;;;;;;5104697;28;20197;-81
2021/10/24 09:28:00;;;;;;;9.97;5.03;;;;;;;;;;5090921;28;20274;-81
2021/10/24 09:30:46;;;;;;;6.40;5.30;;;;;;;;;;5108394;28;20250;-80
2021/10/24 09:33:45;;;;;;;10.80;5.47;;;;;;;;;;5114831;28;20193;-79
2021/10/24 09:36:30;;;;;;;7.43;5.93;;;;;;;;;;5105634;28;20275;-81
2021/10/24 09:39:17;;;;;;;8.17;5.77;;;;;;;;;;5095310;28;20675;-82
2021/10/24 09:42:13;;;;;;;5.97;5.37;;;;;;;;;;5095176;28;20562;-80
2021/10/24 09:45:04;;;;;;;7.30;5.50;;;;;;;;;;5107338;28;20658;-81
2021/10/24 09:47:50;;;;;;;13.07;5.23;;;;;;;;;;5094394;28;20205;-81
2021/10/24 09:50:36;;;;;;;8.00;5.20;;;;;;;;;;5104277;28;20219;-84
2021/10/24 09:53:21;;;;;;;5.87;5.00;;;;;;;;;;5114439;28;20282;-81
2021/10/24 09:56:08;;;;;;;9.30;5.60;;;;;;;;;;5114333;28;20287;-81
2021/10/24 09:58:55;;;;;;;7.40;5.47;;;;;;;;;;5110849;28;20682;-80
2021/10/24 10:01:41;;;;;;;6.90;5.60;;;;;;;;;;5114133;28;20230;-82
2021/10/24 10:04:26;;;;;;;7.47;5.60;;;;;;;;;;5114408;28;20188;-79
2021/10/24 10:07:11;;;;;;;6.73;4.80;;;;;;;;;;5114200;28;20196;-79
2021/10/24 10:09:58;;;;;;;10.37;5.10;;;;;;;;;;5098364;28;20287;-79
2021/10/24 10:12:47;;;;;;;6.23;5.47;;;;;;;;;;5108593;28;20197;-81
2021/10/24 10:15:35;;;;;;;7.43;4.90;;;;;;;;;;5110006;28;20195;-80
2021/10/24 10:18:20;;;;;;;6.00;5.33;;;;;;;;;;5101710;28;20216;-85
2021/10/24 10:21:05;;;;;;;8.57;5.17;;;;;;;;;;5099690;28;20200;-83
2021/10/24 10:23:50;;;;;;;4.80;4.30;;;;;;;;;;5093890;28;20672;-83
2021/10/24 10:26:36;;;;;;;4.67;4.13;;;;;;;;;;5097592;28;20702;-82
2021/10/24 10:29:36;;;;;;;5.73;4.20;;;;;;;;;;5114106;28;20184;-84
2021/10/24 10:32:24;;;;;;;5.07;4.30;;;;;;;;;;5113997;28;20184;-85
2021/10/24 10:35:10;;;;;;;5.20;3.80;;;;;;;;;;5114077;28;20184;-81
2021/10/24 10:37:56;;;;;;;5.43;4.30;;;;;;;;;;5113395;28;20956;-82
2021/10/24 10:40:41;;;;;;;6.10;3.70;;;;;;;;;;5113425;28;20208;-83
2021/10/24 10:43:26;;;;;;;4.83;3.70;;;;;;;;;;5113847;28;20318;-82
2021/10/24 10:46:11;;;;;;;4.03;3.37;;;;;;;;;;5114027;28;20552;-84
2021/10/24 10:49:17;;;;;;;4.63;2.60;;;;;;;;;;5112356;28;20177;-82
2021/10/24 10:52:17;;;;;;;4.60;2.27;;;;;;;;;;5113629;28;20323;-83
2021/10/24 10:55:04;;;;;;;3.10;2.60;;;;;;;;;;5111438;28;20311;-83
2021/10/24 10:57:49;;;;;;;3.40;2.60;;;;;;;;;;5113707;28;20318;-90
2021/10/24 11:00:34;;;;;;;3.77;2.53;;;;;;;;;;5112800;28;20282;-82
2021/10/24 11:03:40;;;;;;;2.63;2.43;;;;;;;;;;5113301;28;20188;-87
2021/10/24 11:06:44;;;;;;;5.13;2.53;;;;;;;;;;5113868;28;20185;-84
2021/10/24 11:09:46;;;;;;;3.07;2.33;;;;;;;;;;5113013;28;20184;-84
2021/10/24 11:12:50;;;;;;;2.50;2.30;;;;;;;;;;5113902;28;20207;-81
2021/10/24 11:15:37;;;;;;;5.43;2.53;;;;;;;;;;5093027;28;20668;-80
2021/10/24 11:18:29;;;;;;;3.20;2.50;;;;;;;;;;5092603;28;20193;-82
2021/10/24 11:21:25;;;;;;;3.33;2.70;;;;;;;;;;5093114;28;20276;-86
2021/10/24 11:24:10;;;;;;;3.30;2.50;;;;;;;;;;5112720;28;20238;-83
2021/10/24 11:26:56;;;;;;;5.70;2.93;;;;;;;;;;5109017;28;20264;-85
2021/10/24 11:29:46;;;;;;;5.73;2.93;;;;;;;;;;5112925;28;20262;-83
2021/10/24 11:32:34;;;;;;;5.67;2.63;;;;;;;;;;5112830;28;20180;-82
2021/10/24 11:35:19;;;;;;;9.23;2.60;;;;;;;;;;5112837;28;20226;-83
2021/10/24 11:38:09;;;;;;;4.53;2.80;;;;;;;;;;5112425;28;20196;-83
2021/10/24 11:40:54;;;;;;;2.77;2.57;;;;;;;;;;5103913;28;20595;-82
2021/10/24 11:43:39;;;;;;;3.53;2.47;;;;;;;;;;5110959;28;20184;-83
2021/10/24 11:46:24;;;;;;;2.63;2.40;;;;;;;;;;5110712;28;20208;-83
2021/10/24 11:49:11;;;;;;;3.63;2.70;;;;;;;;;;5110766;28;20226;-84
2021/10/24 11:51:56;;;;;;;3.47;3.00;;;;;;;;;;5110772;28;20246;-84
2021/10/24 11:54:57;;;;;;;4.50;2.53;;;;;;;;;;5110377;28;20289;-83
2021/10/24 11:57:58;;;;;;;3.50;2.50;;;;;;;;;;5110592;28;20188;-87
2021/10/24 12:00:50;;;;;;;3.23;2.20;;;;;;;;;;5107462;28;20677;-86
2021/10/24 12:03:35;;;;;;;2.63;2.30;;;;;;;;;;5112647;28;20188;-85
2021/10/24 12:06:36;;;;;;;3.43;2.50;;;;;;;;;;5113254;28;20211;-86
2021/10/24 12:09:30;;;;;;;2.50;2.30;;;;;;;;;;5112669;28;20279;-85
2021/10/24 12:12:18;;;;;;;2.37;2.17;;;;;;;;;;5111316;28;20184;-87
2021/10/24 12:15:04;;;;;;;3.63;2.57;;;;;;;;;;5112481;28;20204;-85
2021/10/24 12:17:50;;;;;;;3.93;2.60;;;;;;;;;;5112404;28;20242;-85
2021/10/24 12:20:35;;;;;;;4.60;2.70;;;;;;;;;;5111747;28;20687;-86
2021/10/24 12:23:20;;;;;;;3.23;2.30;;;;;;;;;;5111259;28;20195;-85
2021/10/24 12:26:08;;;;;;;5.40;2.40;;;;;;;;;;5112168;28;20184;-86
2021/10/24 12:28:55;;;;;;;3.97;2.50;;;;;;;;;;5112266;28;20185;-83
2021/10/24 12:31:40;;;;;;;4.20;2.43;;;;;;;;;;5111601;28;20192;-84
2021/10/24 12:34:25;;;;;;;2.57;2.07;;;;;;;;;;5111943;28;20262;-85
2021/10/24 12:37:16;;;;;;;4.10;1.90;;;;;;;;;;5111937;28;20208;-82
2021/10/24 12:40:15;;;;;;;3.90;2.10;;;;;;;;;;5111466;28;20227;-82
2021/10/24 12:43:18;;;;;;;2.30;2.10;;;;;;;;;;5111704;28;20197;-81
2021/10/24 12:46:04;;;;;;;2.90;2.30;;;;;;;;;;5108780;28;20215;-84
2021/10/24 12:48:50;;;;;;;2.37;2.10;;;;;;;;;;5111574;28;20319;-82
2021/10/24 12:51:35;;;;;;;2.87;2.13;;;;;;;;;;5111265;28;20216;-83
2021/10/24 12:54:27;;;;;;;2.57;2.37;;;;;;;;;;5111206;28;20301;-83
2021/10/24 12:57:12;;;;;;;3.47;2.37;;;;;;;;;;5111650;28;20184;-85
2021/10/24 12:59:57;;;;;;;3.30;2.30;;;;;;;;;;5110984;28;20356;-86
2021/10/24 13:02:43;;;;;;;3.57;2.67;;;;;;;;;;5111447;28;20192;-86
2021/10/24 13:05:29;;;;;;;3.10;2.50;;;;;;;;;;5113897;28;20223;-86
2021/10/24 13:08:15;;;;;;;3.90;2.60;;;;;;;;;;5115400;28;20491;-87
2021/10/24 13:11:00;;;;;;;2.60;2.40;;;;;;;;;;5114479;28;20561;-86
2021/10/24 13:13:45;;;;;;;4.47;2.30;;;;;;;;;;5114800;28;20203;-86
2021/10/24 13:16:30;;;;;;;4.03;2.73;;;;;;;;;;5115072;28;20310;-87
2021/10/24 13:19:16;;;;;;;2.70;2.47;;;;;;;;;;5094937;28;20193;-87
2021/10/24 13:25:06;;;;;;;5.67;2.53;;;;;;;;;;5105124;28;20295;-84
2021/10/24 13:27:51;;;;;;;3.87;2.60;;;;;;;;;;5115164;28;20231;-86
2021/10/24 13:30:37;;;;;;;6.07;4.10;;;;;;;;;;5114772;28;20180;-87
2021/10/24 13:33:23;;;;;;;8.57;4.67;;;;;;;;;;5114762;28;20184;-86
2021/10/24 13:36:09;;;;;;;4.20;2.93;;;;;;;;;;5113710;28;20192;-89
2021/10/24 13:38:55;;;;;;;6.33;4.27;;;;;;;;;;5114907;28;20192;-87
2021/10/24 13:41:40;;;;;;;4.60;2.67;;;;;;;;;;5114403;28;20208;-87
2021/10/24 13:44:25;;;;;;;2.80;2.60;;;;;;;;;;5115319;28;20184;-89
2021/10/24 13:47:10;;;;;;;2.70;2.50;;;;;;;;;;5114371;28;20662;-86
2021/10/24 13:49:55;;;;;;;4.33;3.00;;;;;;;;;;5113738;28;20216;-88
2021/10/24 13:52:42;;;;;;;5.93;2.60;;;;;;;;;;5113524;28;20227;-85
2021/10/24 13:55:27;;;;;;;4.80;3.03;;;;;;;;;;5114330;28;20662;-87
2021/10/24 13:58:12;;;;;;;2.67;2.47;;;;;;;;;;5114314;28;20215;-85
2021/10/24 14:00:57;;;;;;;2.93;2.70;;;;;;;;;;5113688;28;20208;-84
2021/10/24 14:03:51;;;;;;;7.33;2.90;;;;;;;;;;5114696;28;20287;-84
2021/10/24 14:06:36;;;;;;;4.87;2.70;;;;;;;;;;5113831;28;20184;-85
2021/10/24 14:09:22;;;;;;;2.87;2.67;;;;;;;;;;5114255;28;20234;-89
2021/10/24 14:12:07;;;;;;;4.67;3.17;;;;;;;;;;5114054;28;20185;-87
2021/10/24 14:14:53;;;;;;;3.70;3.37;;;;;;;;;;5114953;28;20237;-87
2021/10/24 14:17:38;;;;;;;3.90;2.90;;;;;;;;;;5114153;28;20258;-91
2021/10/24 14:20:25;;;;;;;3.27;2.73;;;;;;;;;;5113987;28;20559;-83
2021/10/24 14:23:10;;;;;;;4.60;3.07;;;;;;;;;;5114444;28;20282;-88
2021/10/24 14:25:56;;;;;;;5.23;2.90;;;;;;;;;;5114447;28;20718;-89
2021/10/24 14:28:41;;;;;;;4.00;3.10;;;;;;;;;;5114803;28;20180;-86
2021/10/24 14:31:26;;;;;;;3.40;3.10;;;;;;;;;;5113413;28;20700;-88
2021/10/24 14:34:11;;;;;;;3.10;2.80;;;;;;;;;;5114147;28;20655;-85
2021/10/24 14:36:56;;;;;;;4.97;2.63;;;;;;;;;;5114075;28;20306;-86
2021/10/24 14:39:42;;;;;;;3.50;2.70;;;;;;;;;;5113866;28;20310;-85
2021/10/24 14:42:28;;;;;;;3.90;2.90;;;;;;;;;;5113849;28;20183;-86
2021/10/24 14:45:13;;;;;;;5.65;3.30;;;;;;;;;;5112747;28;20823;-85
2021/10/24 14:47:59;;;;;;;4.07;2.80;;;;;;;;;;5113683;28;20187;-86
2021/10/24 14:50:44;;;;;;;5.23;2.60;;;;;;;;;;5113755;28;20220;-84
2021/10/24 14:53:29;;;;;;;4.03;3.20;;;;;;;;;;5113333;28;20822;-86
2021/10/24 14:56:14;;;;;;;3.33;3.03;;;;;;;;;;5113460;28;20322;-85
2021/10/24 14:59:01;;;;;;;4.90;3.40;;;;;;;;;;5113520;28;20728;-87
2021/10/24 15:01:46;;;;;;;3.27;2.90;;;;;;;;;;5114187;28;20239;-90
2021/10/24 15:04:31;;;;;;;3.50;2.90;;;;;;;;;;5113855;28;20192;-87
2021/10/24 15:07:17;;;;;;;3.63;2.73;;;;;;;;;;5113326;28;20223;-87
2021/10/24 15:10:02;;;;;;;3.93;2.70;;;;;;;;;;5112993;28;20648;-89
2021/10/24 15:12:47;;;;;;;2.60;2.40;;;;;;;;;;5113450;28;20184;-89
2021/10/24 15:15:38;;;;;;;2.67;2.47;;;;;;;;;;5113060;28;20274;-86
2021/10/24 15:18:26;;;;;;;2.87;2.60;;;;;;;;;;5113411;28;20200;-86
2021/10/24 15:21:11;;;;;;;4.73;2.77;;;;;;;;;;5112810;28;20316;-86
2021/10/24 15:23:56;;;;;;;3.40;3.10;;;;;;;;;;5112359;28;20184;-85
2021/10/24 15:26:41;;;;;;;4.17;2.90;;;;;;;;;;5112896;28;20184;-85
2021/10/24 15:29:26;;;;;;;3.13;2.83;;;;;;;;;;5112469;28;20184;-83
2021/10/24 15:32:13;;;;;;;5.90;2.87;;;;;;;;;;5112535;28;20660;-80
2021/10/24 15:35:00;;;;;;;4.53;2.97;;;;;;;;;;5112347;28;20572;-81
2021/10/24 15:37:45;;;;;;;4.20;3.13;;;;;;;;;;5112237;28;20230;-80
2021/10/24 15:40:30;;;;;;;3.00;2.80;;;;;;;;;;5112128;28;20185;-81
2021/10/24 15:43:15;;;;;;;4.83;3.53;;;;;;;;;;5112344;28;20183;-82
2021/10/24 15:46:00;;;;;;;5.07;2.70;;;;;;;;;;5112083;28;20187;-82
2021/10/24 15:48:47;;;;;;;3.17;2.37;;;;;;;;;;5111970;28;20311;-82
2021/10/24 15:51:32;;;;;;;4.80;3.00;;;;;;;;;;5112318;28;20289;-83
2021/10/24 15:54:19;;;;;;;5.80;2.80;;;;;;;;;;5111614;28;20228;-81
2021/10/24 15:57:05;;;;;;;3.83;3.07;;;;;;;;;;5112416;28;20191;-83
2021/10/24 15:59:50;;;;;;;4.97;2.90;;;;;;;;;;5112690;28;20660;-82
2021/10/24 16:02:35;;;;;;;6.10;3.30;;;;;;;;;;5111638;28;20208;-84
2021/10/24 16:05:22;;;;;;;3.77;2.80;;;;;;;;;;5112252;28;20648;-82
2021/10/24 16:08:07;;;;;;;6.20;2.83;;;;;;;;;;5112428;28;20200;-85
2021/10/24 16:10:52;;;;;;;5.20;2.40;;;;;;;;;;5112206;28;20675;-84
2021/10/24 16:13:37;;;;;;;2.63;2.43;;;;;;;;;;5112446;28;20265;-84
2021/10/24 16:16:22;;;;;;;4.57;3.03;;;;;;;;;;5112328;28;20188;-85
2021/10/24 16:19:08;;;;;;;4.67;3.80;;;;;;;;;;5112593;28;20595;-85
2021/10/24 16:21:54;;;;;;;5.10;4.70;;;;;;;;;;5112102;28;20204;-85
2021/10/24 16:24:40;;;;;;;5.77;4.30;;;;;;;;;;5112388;28;20242;-85
2021/10/24 16:27:24;;;;;;;6.00;3.33;;;;;;;;;;5112200;28;20801;-85
2021/10/24 16:30:11;;;;;;;3.47;3.17;;;;;;;;;;5112331;28;20184;-85
2021/10/24 16:32:56;;;;;;;3.77;3.40;;;;;;;;;;5111960;28;20184;-86
2021/10/24 16:35:41;;;;;;;5.33;3.80;;;;;;;;;;5112369;28;20187;-86
2021/10/24 16:38:28;;;;;;;3.50;3.20;;;;;;;;;;5112295;28;20597;-86